Time;durP1;ratioP1;P1;durP2;ratioP2;P2;SDS_P1;SDS_P2;PMS_P1;PMS_P2;Temp;Humidity;BMP_temperature;BMP_pressure;BME280_temperature;BME280_humidity;BME280_pressure;Samples;Min_cycle;Max_cycle;Signal;HPM_P1;HPM_P2
2021/12/18 00:01:23;;;;;;;3.45;0.70;;;7.90;99.90;;;;;;5050707;28;20028;-85
2021/12/18 00:03:49;;;;;;;3.08;0.95;;;7.90;99.90;;;;;;5068991;28;20056;-85
2021/12/18 00:06:15;;;;;;;3.45;0.80;;;7.90;99.90;;;;;;5070735;28;20362;-85
2021/12/18 00:08:42;;;;;;;3.78;0.85;;;7.90;99.90;;;;;;5070944;28;20037;-85
2021/12/18 00:11:07;;;;;;;3.92;1.10;;;7.80;99.90;;;;;;5070863;28;20127;-85
2021/12/18 00:13:33;;;;;;;3.15;0.80;;;7.80;99.90;;;;;;5070657;28;20093;-85
2021/12/18 00:15:59;;;;;;;2.50;0.88;;;7.80;99.90;;;;;;5070499;28;20085;-85
2021/12/18 00:18:25;;;;;;;4.68;1.13;;;7.80;99.90;;;;;;5070685;28;20078;-85
2021/12/18 00:20:51;;;;;;;4.88;0.80;;;7.80;99.90;;;;;;5070582;28;20065;-85
2021/12/18 00:23:17;;;;;;;3.25;0.80;;;7.80;99.90;;;;;;5053619;28;20062;-85
2021/12/18 00:25:44;;;;;;;2.90;0.80;;;7.70;99.90;;;;;;5070680;28;20052;-85
2021/12/18 00:28:10;;;;;;;3.25;0.77;;;7.80;99.90;;;;;;5070278;28;20168;-85
2021/12/18 00:30:37;;;;;;;3.22;0.90;;;7.80;99.90;;;;;;5070067;28;20112;-85
2021/12/18 00:33:04;;;;;;;4.45;0.77;;;7.80;99.90;;;;;;5070623;28;20037;-85
2021/12/18 00:35:32;;;;;;;3.47;1.35;;;7.80;99.90;;;;;;5069755;28;20036;-85
2021/12/18 00:38:03;;;;;;;3.17;0.82;;;7.80;99.90;;;;;;5066442;28;20091;-85
2021/12/18 00:40:32;;;;;;;;;;;7.80;99.90;;;;;;5050799;28;20031;-85
2021/12/18 00:43:01;;;;;;;2.92;0.70;;;7.80;99.90;;;;;;5033805;28;19972;-86
2021/12/18 00:45:29;;;;;;;5.05;0.80;;;7.80;99.90;;;;;;5050347;28;20132;-85
2021/12/18 00:47:55;;;;;;;3.97;0.82;;;7.80;99.90;;;;;;5049887;28;20037;-85
2021/12/18 00:50:26;;;;;;;4.00;1.20;;;7.80;99.90;;;;;;5050120;28;20036;-86
2021/12/18 00:52:52;;;;;;;2.88;0.77;;;7.80;99.90;;;;;;5049940;28;20489;-85
2021/12/18 00:55:20;;;;;;;2.97;0.98;;;7.80;99.90;;;;;;5049957;28;20036;-85
2021/12/18 00:57:46;;;;;;;3.30;0.90;;;7.80;99.90;;;;;;5049750;28;20045;-85
2021/12/18 01:00:15;;;;;;;3.47;0.70;;;7.80;99.90;;;;;;5049920;28;20032;-85
2021/12/18 01:02:44;;;;;;;2.70;0.82;;;7.80;99.90;;;;;;5049807;28;20104;-86
2021/12/18 01:05:11;;;;;;;3.05;1.13;;;7.80;99.90;;;;;;5049863;28;20040;-86
2021/12/18 01:07:37;;;;;;;4.20;1.38;;;7.80;99.90;;;;;;5049599;28;20032;-85
2021/12/18 01:12:39;;;;;;;2.97;0.93;;;7.80;99.90;;;;;;5067279;28;20029;-85
2021/12/18 01:15:16;;;;;;;5.82;1.20;;;7.80;99.90;;;;;;5049204;28;20033;-84
2021/12/18 01:23:11;;;;;;;3.78;1.50;;;7.80;99.90;;;;;;5049328;28;20385;-85
2021/12/18 01:25:37;;;;;;;3.47;0.90;;;7.80;99.90;;;;;;5032684;28;20033;-84
2021/12/18 01:28:03;;;;;;;4.00;1.05;;;7.80;99.90;;;;;;5049220;28;20041;-86
2021/12/18 01:30:29;;;;;;;4.65;1.23;;;7.80;99.90;;;;;;5049010;28;20045;-86
2021/12/18 01:32:55;;;;;;;4.55;1.17;;;7.80;99.90;;;;;;5049390;28;20499;-85
2021/12/18 01:35:22;;;;;;;3.15;1.10;;;7.80;99.90;;;;;;5049265;28;20037;-85
2021/12/18 01:37:49;;;;;;;3.78;0.95;;;7.80;99.90;;;;;;5051221;28;20045;-86
2021/12/18 01:40:16;;;;;;;4.68;1.42;;;7.80;99.90;;;;;;5069102;28;20028;-86
2021/12/18 01:43:36;;;;;;;4.43;1.40;;;7.80;99.90;;;;;;5069325;28;20082;-86
2021/12/18 01:45:41;;;;;;;5.63;1.33;;;7.80;99.90;;;;;;5085223;28;20481;-86
2021/12/18 01:53:29;;;;;;;5.05;1.48;;;7.80;99.90;;;;;;5069587;28;20051;-85
2021/12/18 01:55:54;;;;;;;4.90;1.40;;;7.80;99.90;;;;;;5068708;28;20488;-85
2021/12/18 01:58:23;;;;;;;4.15;1.58;;;7.80;99.90;;;;;;5068601;28;20059;-85
2021/12/18 02:00:57;;;;;;;3.88;1.40;;;7.80;99.90;;;;;;5069299;28;20513;-85
2021/12/18 02:03:23;;;;;;;4.70;1.35;;;7.80;99.90;;;;;;5068726;28;20051;-85
2021/12/18 02:05:50;;;;;;;5.15;1.52;;;7.80;99.90;;;;;;5051881;28;20035;-85
2021/12/18 02:08:21;;;;;;;4.05;1.38;;;7.80;99.90;;;;;;5052004;28;20033;-86
2021/12/18 02:10:55;;;;;;;8.27;1.20;;;7.80;99.90;;;;;;5068675;28;20029;-86
2021/12/18 02:21:29;;;;;;;3.90;1.20;;;7.80;99.90;;;;;;5068319;28;20040;-86
2021/12/18 02:23:55;;;;;;;4.05;1.02;;;7.80;99.90;;;;;;5068392;28;20067;-85
2021/12/18 02:26:22;;;;;;;5.40;1.20;;;7.80;99.90;;;;;;5067354;28;20033;-86
2021/12/18 02:28:49;;;;;;;4.07;1.40;;;7.80;99.90;;;;;;5068032;28;20040;-85
2021/12/18 02:31:17;;;;;;;5.25;1.67;;;7.80;99.90;;;;;;5051482;28;20071;-85
2021/12/18 02:33:43;;;;;;;6.53;2.15;;;7.80;99.90;;;;;;5068343;28;20032;-86
2021/12/18 02:36:11;;;;;;;6.90;1.77;;;7.80;99.90;;;;;;5068148;28;20025;-85
2021/12/18 02:41:41;;;;;;;4.40;1.15;;;7.80;99.90;;;;;;5059892;28;20093;-85
2021/12/18 02:44:09;;;;;;;5.35;1.88;;;7.80;99.90;;;;;;5068238;28;20036;-85
2021/12/18 02:46:36;;;;;;;5.20;1.85;;;7.90;99.90;;;;;;5051559;28;20127;-85
2021/12/18 02:49:08;;;;;;;6.13;1.95;;;7.90;99.90;;;;;;5068000;28;20480;-86
2021/12/18 02:51:34;;;;;;;6.32;1.52;;;7.90;99.90;;;;;;5068004;28;20483;-85
2021/12/18 02:53:59;;;;;;;6.65;2.05;;;7.90;99.90;;;;;;5051302;28;20028;-86
2021/12/18 02:56:25;;;;;;;4.93;1.80;;;7.80;99.90;;;;;;5068011;28;20068;-85
2021/12/18 02:58:53;;;;;;;7.50;2.20;;;7.90;99.90;;;;;;5068087;28;20029;-85
2021/12/18 03:01:22;;;;;;;6.70;1.80;;;7.80;99.90;;;;;;5051601;28;20090;-86
2021/12/18 03:03:49;;;;;;;7.32;2.60;;;7.80;99.90;;;;;;5051639;28;20056;-86
2021/12/18 03:27:25;;;;;;;5.38;1.90;;;7.70;99.90;;;;;;5084393;28;20031;-85
2021/12/18 03:29:51;;;;;;;4.97;1.85;;;7.70;99.90;;;;;;5050696;28;20037;-85
2021/12/18 03:32:17;;;;;;;4.43;1.70;;;7.80;99.90;;;;;;5051210;28;20036;-85
2021/12/18 03:34:44;;;;;;;3.78;1.08;;;7.80;99.90;;;;;;5050829;28;20116;-85
2021/12/18 03:37:10;;;;;;;4.00;0.80;;;7.80;99.90;;;;;;5051640;28;20041;-85
2021/12/18 03:39:36;;;;;;;4.82;1.65;;;7.80;99.90;;;;;;5054489;28;20028;-85
2021/12/18 03:42:06;;;;;;;5.45;1.42;;;7.80;99.90;;;;;;5071545;28;20065;-86
2021/12/18 03:44:32;;;;;;;4.80;1.65;;;7.80;99.90;;;;;;5071295;28;20035;-85
2021/12/18 03:46:58;;;;;;;5.28;1.90;;;7.80;99.90;;;;;;5090303;28;20070;-85
2021/12/18 03:49:24;;;;;;;5.07;1.58;;;7.80;99.90;;;;;;5072472;28;20052;-85
2021/12/18 03:51:49;;;;;;;5.43;1.55;;;7.80;99.90;;;;;;5087680;28;20052;-86
2021/12/18 03:54:15;;;;;;;3.90;1.60;;;7.80;99.90;;;;;;5071093;28;20039;-86
2021/12/18 03:56:41;;;;;;;3.63;1.30;;;7.70;99.90;;;;;;5071038;28;20037;-85
2021/12/18 03:59:06;;;;;;;3.92;1.10;;;7.80;99.90;;;;;;5070897;28;20039;-86
2021/12/18 04:01:32;;;;;;;3.00;0.82;;;7.80;99.90;;;;;;5071000;28;20058;-85
2021/12/18 04:03:57;;;;;;;4.53;1.60;;;7.70;99.90;;;;;;5070975;28;20036;-85
2021/12/18 04:06:23;;;;;;;7.20;2.22;;;7.70;99.90;;;;;;5070775;28;20032;-86
2021/12/18 04:08:49;;;;;;;7.25;2.33;;;7.70;99.90;;;;;;5070949;28;20028;-85
2021/12/18 04:11:15;;;;;;;4.90;1.13;;;7.70;99.90;;;;;;5070557;28;20032;-85
2021/12/18 04:13:44;;;;;;;5.57;1.98;;;7.60;99.90;;;;;;5071027;28;20104;-85
2021/12/18 04:16:10;;;;;;;4.55;1.15;;;7.60;99.90;;;;;;5070509;28;20400;-85
2021/12/18 04:18:36;;;;;;;4.78;1.90;;;7.60;99.90;;;;;;5053869;28;20122;-85
2021/12/18 04:21:02;;;;;;;4.80;1.52;;;7.60;99.90;;;;;;5070479;28;20029;-86
2021/12/18 04:23:28;;;;;;;4.65;1.50;;;7.60;99.90;;;;;;5070573;28;20037;-86
2021/12/18 04:25:55;;;;;;;3.83;1.13;;;7.60;99.90;;;;;;5070246;28;20302;-85
2021/12/18 04:28:41;;;;;;;3.17;0.77;;;7.60;99.90;;;;;;5070268;28;20119;-85
2021/12/18 04:31:06;;;;;;;4.07;1.02;;;7.50;99.90;;;;;;4993504;28;20514;-86
2021/12/18 04:33:32;;;;;;;3.75;1.13;;;7.60;99.90;;;;;;5009861;28;20058;-85
2021/12/18 04:35:57;;;;;;;2.65;0.73;;;7.50;99.90;;;;;;5026164;28;20045;-85
2021/12/18 04:38:23;;;;;;;4.15;1.20;;;7.50;99.90;;;;;;5026033;28;20042;-85
2021/12/18 04:40:50;;;;;;;4.03;1.10;;;7.40;99.90;;;;;;5009334;28;20033;-85
2021/12/18 04:43:15;;;;;;;4.18;1.10;;;7.40;99.90;;;;;;5026191;28;20129;-85
2021/12/18 04:45:41;;;;;;;4.57;1.15;;;7.40;99.90;;;;;;5025975;28;20514;-85
2021/12/18 04:48:07;;;;;;;4.10;1.00;;;7.40;99.90;;;;;;5009637;28;20048;-86
2021/12/18 04:50:32;;;;;;;2.47;0.70;;;7.40;99.90;;;;;;5008944;28;20083;-85
2021/12/18 04:52:58;;;;;;;2.83;0.80;;;7.30;99.90;;;;;;5009656;28;20021;-86
2021/12/18 04:55:24;;;;;;;2.65;0.60;;;7.30;99.90;;;;;;5009092;28;20040;-85
2021/12/18 04:57:51;;;;;;;2.55;0.60;;;7.30;99.90;;;;;;5009645;28;20073;-85
2021/12/18 05:00:20;;;;;;;2.70;0.70;;;7.30;99.90;;;;;;5025715;28;20080;-85
2021/12/18 05:02:47;;;;;;;3.05;0.63;;;7.30;99.90;;;;;;5009291;28;20056;-86
2021/12/18 05:05:14;;;;;;;3.28;1.10;;;7.30;99.90;;;;;;4992977;28;20038;-86
2021/12/18 05:07:43;;;;;;;2.92;0.60;;;7.30;99.90;;;;;;5020988;28;20041;-85
2021/12/18 05:10:10;;;;;;;4.05;0.90;;;7.30;99.90;;;;;;5049875;28;20033;-86
2021/12/18 05:12:37;;;;;;;1.95;0.40;;;7.20;99.90;;;;;;5033387;28;20041;-86
2021/12/18 05:15:03;;;;;;;3.03;0.75;;;7.30;99.90;;;;;;5049659;28;20036;-86
2021/12/18 05:17:29;;;;;;;4.25;0.90;;;7.20;99.90;;;;;;5049484;28;20057;-85
2021/12/18 05:19:55;;;;;;;4.40;0.82;;;7.20;99.90;;;;;;5049954;28;20032;-86
2021/12/18 05:22:20;;;;;;;2.38;0.50;;;7.20;99.90;;;;;;5049765;28;20051;-85
2021/12/18 05:24:46;;;;;;;1.98;0.68;;;7.20;99.90;;;;;;5049560;28;20025;-86
2021/12/18 05:27:12;;;;;;;3.33;0.50;;;7.20;99.90;;;;;;5049559;28;20037;-86
2021/12/18 05:29:37;;;;;;;2.38;0.50;;;7.20;99.90;;;;;;5032716;28;20029;-85
2021/12/18 05:32:03;;;;;;;2.30;0.50;;;7.10;99.90;;;;;;5066167;28;20044;-85
2021/12/18 05:34:36;;;;;;;1.85;0.45;;;7.10;99.90;;;;;;5049601;28;20033;-85
2021/12/18 05:37:50;;;;;;;2.00;0.40;;;7.10;99.90;;;;;;5049396;28;20066;-85
2021/12/18 05:39:48;;;;;;;2.30;0.43;;;7.10;99.90;;;;;;5055072;28;20052;-86
2021/12/18 05:42:14;;;;;;;2.85;0.50;;;7.00;99.90;;;;;;5069311;28;20096;-85
2021/12/18 05:44:40;;;;;;;1.70;0.30;;;7.10;99.90;;;;;;5052362;28;20044;-85
2021/12/18 05:47:06;;;;;;;1.70;0.30;;;7.10;99.90;;;;;;5069027;28;20044;-86
2021/12/18 05:49:32;;;;;;;2.63;0.52;;;7.10;99.90;;;;;;5069212;28;20464;-85
2021/12/18 05:51:58;;;;;;;2.33;0.43;;;7.20;99.90;;;;;;5068833;28;20044;-85
2021/12/18 05:54:23;;;;;;;2.20;0.52;;;7.10;99.90;;;;;;5069112;28;20124;-86
2021/12/18 05:56:49;;;;;;;4.40;0.50;;;7.10;99.90;;;;;;5068570;28;20047;-85
2021/12/18 05:59:15;;;;;;;1.73;0.50;;;7.10;99.90;;;;;;5068691;28;20033;-86
2021/12/18 06:01:41;;;;;;;2.55;0.60;;;7.00;99.90;;;;;;5067945;28;20066;-86
2021/12/18 06:04:07;;;;;;;2.85;0.50;;;7.00;99.90;;;;;;5068896;28;20032;-86
2021/12/18 06:06:33;;;;;;;4.25;0.47;;;7.00;99.90;;;;;;5068835;28;20078;-85
2021/12/18 06:08:59;;;;;;;2.80;0.60;;;7.00;99.90;;;;;;5052001;28;20028;-85
2021/12/18 06:11:27;;;;;;;2.17;0.45;;;7.00;99.90;;;;;;5068660;28;20036;-85
2021/12/18 06:13:53;;;;;;;1.75;0.45;;;7.00;99.90;;;;;;5068681;28;20032;-85
2021/12/18 06:16:20;;;;;;;2.30;0.40;;;6.90;99.90;;;;;;5068258;28;20032;-85
2021/12/18 06:18:49;;;;;;;2.00;0.40;;;6.90;99.90;;;;;;5068679;28;20036;-86
2021/12/18 06:21:16;;;;;;;2.80;0.70;;;6.90;99.90;;;;;;5068522;28;20036;-85
2021/12/18 06:23:44;;;;;;;3.88;0.60;;;6.80;99.90;;;;;;5068590;28;20104;-86
2021/12/18 06:26:10;;;;;;;3.35;0.98;;;6.80;99.90;;;;;;5086167;28;20093;-85
2021/12/18 06:28:56;;;;;;;1.58;0.40;;;6.80;99.90;;;;;;5068266;28;20028;-86
2021/12/18 06:31:22;;;;;;;3.03;0.40;;;6.80;99.90;;;;;;5027119;28;20076;-86
2021/12/18 06:33:47;;;;;;;2.10;0.50;;;6.70;99.90;;;;;;5027397;28;20049;-86
2021/12/18 06:36:13;;;;;;;2.17;0.40;;;6.70;99.90;;;;;;5027148;28;20033;-86
2021/12/18 06:38:39;;;;;;;2.90;0.30;;;6.70;99.90;;;;;;5027236;28;20037;-86
2021/12/18 06:41:04;;;;;;;2.03;0.20;;;6.70;99.90;;;;;;5042114;28;20442;-87
2021/12/18 06:43:30;;;;;;;1.65;0.30;;;6.70;99.90;;;;;;5043700;28;20124;-88
2021/12/18 06:45:56;;;;;;;1.58;0.35;;;6.80;99.90;;;;;;5045159;28;20034;-87
2021/12/18 06:48:21;;;;;;;1.52;0.30;;;6.80;99.90;;;;;;5045988;28;20034;-88
2021/12/18 06:50:47;;;;;;;0.90;0.20;;;6.80;99.90;;;;;;5011852;28;20030;-87
2021/12/18 06:53:13;;;;;;;1.52;0.22;;;6.80;99.90;;;;;;5043967;28;20033;-87
2021/12/18 06:55:38;;;;;;;1.45;0.20;;;6.80;99.90;;;;;;5043377;28;20045;-88
2021/12/18 06:58:04;;;;;;;1.40;0.20;;;6.80;99.90;;;;;;5043291;28;20052;-87
2021/12/18 07:00:30;;;;;;;1.65;0.20;;;6.80;99.90;;;;;;5043521;28;20029;-87
2021/12/18 07:02:56;;;;;;;1.27;0.20;;;6.80;99.90;;;;;;5043325;28;20625;-87
2021/12/18 07:05:22;;;;;;;1.92;0.30;;;6.80;99.90;;;;;;5043473;28;20045;-87
2021/12/18 07:07:50;;;;;;;1.65;0.20;;;6.80;99.90;;;;;;5048529;28;20051;-87
2021/12/18 07:10:16;;;;;;;1.52;0.25;;;6.80;99.90;;;;;;5031411;28;20029;-87
2021/12/18 07:12:42;;;;;;;1.60;0.20;;;6.80;99.90;;;;;;5049288;28;20144;-87
2021/12/18 07:15:09;;;;;;;1.88;0.32;;;6.80;99.90;;;;;;5051842;28;20044;-87
2021/12/18 07:17:35;;;;;;;2.20;0.73;;;6.70;99.90;;;;;;5052031;28;20036;-87
2021/12/18 07:20:01;;;;;;;2.00;0.30;;;6.80;99.90;;;;;;5069671;28;20029;-86
2021/12/18 07:22:27;;;;;;;1.95;0.30;;;6.70;99.90;;;;;;5034925;28;20032;-87
2021/12/18 07:24:52;;;;;;;2.08;0.30;;;6.70;99.90;;;;;;5051669;28;20033;-87
2021/12/18 07:27:18;;;;;;;1.75;0.40;;;6.70;99.90;;;;;;5051286;28;20055;-87
2021/12/18 07:29:44;;;;;;;2.00;0.30;;;6.70;99.90;;;;;;5034645;28;20032;-87
2021/12/18 07:32:09;;;;;;;2.80;0.30;;;6.70;99.90;;;;;;5051641;28;20033;-87
2021/12/18 07:34:35;;;;;;;1.50;0.30;;;6.70;99.90;;;;;;5051563;28;20083;-87
2021/12/18 07:37:01;;;;;;;1.55;0.30;;;6.70;99.90;;;;;;5051474;28;20072;-87
2021/12/18 07:39:27;;;;;;;1.70;0.40;;;6.80;99.90;;;;;;5064208;28;20393;-87
2021/12/18 07:41:53;;;;;;;1.55;0.28;;;6.70;99.90;;;;;;5051365;28;20025;-87
2021/12/18 07:44:19;;;;;;;2.13;0.40;;;6.60;99.90;;;;;;5051481;28;20055;-87
2021/12/18 07:46:45;;;;;;;1.17;0.30;;;6.70;99.90;;;;;;5051399;28;20033;-87
2021/12/18 07:49:10;;;;;;;2.00;0.30;;;6.70;99.90;;;;;;5051340;28;20033;-87
2021/12/18 07:51:46;;;;;;;1.33;0.30;;;6.70;99.90;;;;;;5051415;28;20029;-87
2021/12/18 07:54:34;;;;;;;1.55;0.22;;;6.60;99.90;;;;;;5053824;28;20481;-87
2021/12/18 07:56:59;;;;;;;1.45;0.30;;;6.60;99.90;;;;;;5050973;28;20029;-88
2021/12/18 07:59:26;;;;;;;1.10;0.20;;;6.60;99.90;;;;;;5050979;28;20028;-87
2021/12/18 08:01:52;;;;;;;1.48;0.30;;;6.60;99.90;;;;;;5050934;28;20039;-86
2021/12/18 08:04:17;;;;;;;1.15;0.22;;;6.60;99.90;;;;;;5056102;28;20049;-87
2021/12/18 08:06:43;;;;;;;1.05;0.20;;;6.60;99.90;;;;;;5067242;28;20083;-86
2021/12/18 08:09:09;;;;;;;1.75;0.20;;;6.60;99.90;;;;;;5050383;28;20124;-86
2021/12/18 08:11:34;;;;;;;1.63;0.30;;;6.50;99.90;;;;;;5049697;28;20021;-87
2021/12/18 08:14:00;;;;;;;1.00;0.10;;;6.50;99.90;;;;;;5050325;28;20037;-87
2021/12/18 08:16:25;;;;;;;1.05;0.20;;;6.40;99.90;;;;;;5049892;28;20017;-87
2021/12/18 08:18:51;;;;;;;1.70;0.20;;;6.50;99.90;;;;;;5050022;28;20048;-86
2021/12/18 08:21:18;;;;;;;1.25;0.30;;;6.40;99.90;;;;;;5049612;28;20033;-87
2021/12/18 08:23:43;;;;;;;1.13;0.20;;;6.30;99.90;;;;;;5048918;28;20040;-87
2021/12/18 08:26:09;;;;;;;3.10;0.32;;;6.30;99.90;;;;;;5049627;28;20021;-86
2021/12/18 08:28:55;;;;;;;1.02;0.30;;;6.30;99.90;;;;;;5049682;28;20104;-86
2021/12/18 08:31:20;;;;;;;1.40;0.20;;;6.40;99.90;;;;;;4989388;28;20050;-86
2021/12/18 08:33:46;;;;;;;1.23;0.30;;;6.40;99.90;;;;;;4973680;28;20104;-86
2021/12/18 08:36:11;;;;;;;1.30;0.30;;;6.30;99.90;;;;;;4989491;28;20312;-87
2021/12/18 08:38:37;;;;;;;1.20;0.30;;;6.20;99.90;;;;;;4981903;28;20049;-86
2021/12/18 08:41:03;;;;;;;1.25;0.20;;;6.30;99.90;;;;;;5025071;28;20045;-87
2021/12/18 08:43:28;;;;;;;0.88;0.20;;;6.20;99.90;;;;;;5025458;28;20056;-87
2021/12/18 08:45:54;;;;;;;1.33;0.25;;;6.20;99.90;;;;;;5025227;28;20033;-87
2021/12/18 08:48:21;;;;;;;0.98;0.20;;;6.30;99.90;;;;;;5025140;28;20072;-86
2021/12/18 08:50:47;;;;;;;1.00;0.20;;;6.30;99.90;;;;;;5025249;28;20157;-87
2021/12/18 08:53:13;;;;;;;1.00;0.20;;;6.10;99.90;;;;;;5025062;28;20034;-86
2021/12/18 08:55:38;;;;;;;2.28;0.30;;;6.10;99.90;;;;;;5024812;28;20056;-86
2021/12/18 08:58:04;;;;;;;1.25;0.70;;;6.10;99.90;;;;;;5025223;28;20046;-87
2021/12/18 09:00:30;;;;;;;0.77;0.20;;;6.10;99.90;;;;;;5025009;28;20034;-86
2021/12/18 09:03:00;;;;;;;1.35;0.20;;;6.10;99.90;;;;;;4995695;28;20052;-85
2021/12/18 09:05:28;;;;;;;1.17;0.20;;;6.20;99.90;;;;;;5020569;28;20141;-86
2021/12/18 09:07:53;;;;;;;0.60;0.10;;;6.00;99.90;;;;;;5034707;28;20062;-86
2021/12/18 09:10:20;;;;;;;0.80;0.10;;;6.10;99.90;;;;;;5060745;28;20021;-86
2021/12/18 09:12:47;;;;;;;0.93;0.13;;;6.10;99.90;;;;;;5078044;28;20071;-86
2021/12/18 09:15:13;;;;;;;1.38;0.20;;;6.00;99.90;;;;;;5068215;28;20051;-86
2021/12/18 09:17:39;;;;;;;0.57;0.10;;;6.20;99.90;;;;;;5060177;28;20037;-87
2021/12/18 09:20:05;;;;;;;1.40;0.20;;;6.20;99.90;;;;;;5060389;28;20028;-87
2021/12/18 09:22:32;;;;;;;1.15;0.20;;;6.10;99.90;;;;;;5064523;28;20035;-86
2021/12/18 09:24:57;;;;;;;0.75;0.10;;;6.20;99.90;;;;;;5060614;28;20025;-87
2021/12/18 09:27:23;;;;;;;1.05;0.20;;;6.20;99.90;;;;;;5060361;28;20040;-86
2021/12/18 09:29:48;;;;;;;0.85;0.20;;;6.20;99.90;;;;;;5058933;28;20396;-87
2021/12/18 09:32:14;;;;;;;2.42;0.20;;;6.20;99.90;;;;;;5061109;28;20074;-86
2021/12/18 09:34:40;;;;;;;1.00;0.13;;;6.00;99.90;;;;;;5062289;28;20028;-86
2021/12/18 09:37:05;;;;;;;0.68;0.10;;;6.20;99.90;;;;;;5060483;28;20127;-86
2021/12/18 09:39:31;;;;;;;0.60;0.10;;;6.10;99.90;;;;;;5067026;28;20476;-85
2021/12/18 09:41:57;;;;;;;0.93;0.20;;;6.10;99.90;;;;;;5061563;28;20032;-85
2021/12/18 09:44:26;;;;;;;0.77;0.10;;;5.90;99.90;;;;;;5063318;28;20041;-86
2021/12/18 09:46:52;;;;;;;0.45;0.10;;;6.00;99.90;;;;;;5064071;28;20025;-86
2021/12/18 09:49:18;;;;;;;0.52;0.10;;;6.10;99.90;;;;;;5062981;28;20043;-86
2021/12/18 09:51:44;;;;;;;1.10;0.10;;;6.00;99.90;;;;;;5060042;28;20033;-86
2021/12/18 09:54:10;;;;;;;1.15;0.20;;;6.10;99.90;;;;;;5059935;28;20481;-86
2021/12/18 09:56:36;;;;;;;1.00;0.28;;;6.00;99.90;;;;;;5062891;28;20040;-84
2021/12/18 09:59:02;;;;;;;1.20;0.20;;;6.00;99.90;;;;;;5059128;28;20043;-86
2021/12/18 10:01:28;;;;;;;0.55;0.10;;;5.90;99.90;;;;;;5045231;28;20109;-86
2021/12/18 10:03:59;;;;;;;1.02;0.20;;;5.90;99.90;;;;;;5063964;28;20037;-85
2021/12/18 10:06:40;;;;;;;1.50;0.30;;;5.90;99.90;;;;;;5064036;28;20401;-86
2021/12/18 10:09:12;;;;;;;1.90;0.30;;;5.90;99.90;;;;;;5062738;28;20029;-85
2021/12/18 10:11:50;;;;;;;1.52;0.20;;;5.90;99.90;;;;;;5059558;28;20032;-85
2021/12/18 10:14:17;;;;;;;1.38;0.20;;;6.00;99.90;;;;;;5057362;28;20033;-86
2021/12/18 10:16:49;;;;;;;0.77;0.20;;;6.00;99.90;;;;;;5063881;28;20043;-86
2021/12/18 10:19:28;;;;;;;1.50;0.20;;;6.00;99.90;;;;;;5066763;28;20036;-86
2021/12/18 10:21:59;;;;;;;0.93;0.20;;;6.10;99.90;;;;;;5061907;28;20037;-85
2021/12/18 10:24:25;;;;;;;2.97;0.28;;;6.00;99.90;;;;;;5061443;28;20047;-86
2021/12/18 10:26:51;;;;;;;2.22;0.30;;;6.00;99.90;;;;;;5052387;28;20029;-86
2021/12/18 10:29:35;;;;;;;0.80;0.20;;;6.00;99.90;;;;;;5047175;28;20086;-85
2021/12/18 10:32:05;;;;;;;1.25;0.28;;;6.00;99.90;;;;;;5047593;28;20049;-87
2021/12/18 10:34:31;;;;;;;0.55;0.10;;;6.10;99.90;;;;;;5031098;28;20036;-86
2021/12/18 10:37:14;;;;;;;1.48;0.30;;;6.00;99.90;;;;;;5030727;28;20041;-86
2021/12/18 10:39:41;;;;;;;1.27;0.20;;;6.00;99.90;;;;;;5065458;28;20029;-87
2021/12/18 10:42:25;;;;;;;1.13;0.20;;;6.00;99.90;;;;;;5067485;28;20032;-86
2021/12/18 10:45:00;;;;;;;1.10;0.30;;;6.10;99.90;;;;;;5067731;28;20029;-86
2021/12/18 10:47:40;;;;;;;1.73;0.30;;;6.20;99.90;;;;;;5050193;28;20055;-86
2021/12/18 10:50:15;;;;;;;1.75;0.45;;;6.00;99.90;;;;;;5067215;28;20025;-86
2021/12/18 10:52:41;;;;;;;1.25;0.30;;;6.10;99.90;;;;;;5067474;28;20040;-86
2021/12/18 10:55:07;;;;;;;1.45;0.40;;;5.90;99.90;;;;;;5067327;28;20036;-86
2021/12/18 10:57:32;;;;;;;1.30;0.40;;;6.00;99.90;;;;;;5050692;28;20116;-87
2021/12/18 10:59:58;;;;;;;1.02;0.50;;;6.20;99.90;;;;;;5050532;28;20024;-86
2021/12/18 11:02:27;;;;;;;1.77;0.30;;;6.30;99.90;;;;;;5067166;28;20405;-86
2021/12/18 11:04:52;;;;;;;0.90;0.20;;;6.20;99.90;;;;;;5067039;28;20033;-86
2021/12/18 11:07:24;;;;;;;0.90;0.20;;;6.20;99.90;;;;;;5067122;28;20141;-86
2021/12/18 11:15:35;;;;;;;1.00;0.22;;;6.30;99.90;;;;;;5077473;28;20100;-87
2021/12/18 11:18:01;;;;;;;0.70;0.20;;;6.30;99.90;;;;;;5066799;28;20040;-86
2021/12/18 11:20:27;;;;;;;0.70;0.20;;;6.30;99.90;;;;;;5066917;28;20029;-86
2021/12/18 11:22:54;;;;;;;0.80;0.10;;;6.20;99.90;;;;;;5067130;28;20024;-86
2021/12/18 11:25:22;;;;;;;1.02;0.20;;;6.40;99.90;;;;;;5066911;28;20028;-86
2021/12/18 11:27:51;;;;;;;0.98;0.30;;;6.30;99.90;;;;;;5066971;28;20096;-87
2021/12/18 11:30:17;;;;;;;0.65;0.20;;;6.30;99.90;;;;;;5054327;28;20048;-86
2021/12/18 11:32:45;;;;;;;1.50;0.32;;;6.40;99.90;;;;;;5074977;28;20538;-86
2021/12/18 11:35:14;;;;;;;1.88;0.40;;;6.30;99.90;;;;;;5062239;28;20029;-87
2021/12/18 11:37:59;;;;;;;0.65;0.20;;;6.40;99.90;;;;;;5060367;28;20040;-86
2021/12/18 11:40:30;;;;;;;0.90;0.25;;;6.40;99.90;;;;;;5063728;28;20084;-86
2021/12/18 11:42:56;;;;;;;0.95;0.30;;;6.20;99.90;;;;;;5061031;28;20033;-86
2021/12/18 11:45:34;;;;;;;0.65;0.20;;;6.20;99.90;;;;;;5057767;28;20035;-87
2021/12/18 11:48:00;;;;;;;0.98;0.20;;;6.20;99.90;;;;;;5074197;28;20028;-87
2021/12/18 11:50:32;;;;;;;1.00;0.30;;;6.30;99.90;;;;;;5065054;28;20098;-86
2021/12/18 11:53:10;;;;;;;1.13;0.20;;;6.40;99.90;;;;;;5059499;28;20059;-87
2021/12/18 11:55:49;;;;;;;2.72;0.40;;;6.50;99.90;;;;;;5058632;28;20033;-88
2021/12/18 11:58:33;;;;;;;0.90;0.30;;;6.60;99.90;;;;;;5071858;28;20052;-87
2021/12/18 12:01:11;;;;;;;0.80;0.20;;;6.60;99.90;;;;;;5072834;28;20043;-87
2021/12/18 12:03:44;;;;;;;1.05;0.20;;;6.70;99.90;;;;;;5054962;28;20032;-87
2021/12/18 12:06:22;;;;;;;0.77;0.20;;;6.50;99.90;;;;;;5039262;28;20032;-87
2021/12/18 12:08:51;;;;;;;0.65;0.20;;;6.70;99.90;;;;;;5071276;28;20071;-87
2021/12/18 12:11:27;;;;;;;0.65;0.15;;;6.60;99.90;;;;;;5069226;28;20044;-87
2021/12/18 12:14:06;;;;;;;0.65;0.20;;;6.60;99.90;;;;;;5040249;28;20045;-86
2021/12/18 12:16:44;;;;;;;1.30;0.50;;;6.70;99.90;;;;;;5067144;28;20025;-87
2021/12/18 12:19:20;;;;;;;1.42;0.50;;;6.70;99.90;;;;;;5063283;28;20094;-87
2021/12/18 12:21:52;;;;;;;3.25;1.65;;;6.70;99.90;;;;;;5045905;28;20029;-85
2021/12/18 12:24:31;;;;;;;2.00;0.90;;;6.60;99.90;;;;;;5053706;28;20112;-85
2021/12/18 12:27:29;;;;;;;2.83;1.23;;;6.60;99.90;;;;;;5041104;28;20036;-86
2021/12/18 12:29:56;;;;;;;1.60;0.43;;;6.80;99.90;;;;;;5060266;28;20048;-85
2021/12/18 12:32:23;;;;;;;1.70;0.40;;;6.70;99.90;;;;;;5065689;28;20059;-86
2021/12/18 12:35:00;;;;;;;1.02;0.30;;;6.90;99.90;;;;;;5057611;28;20033;-84
2021/12/18 12:37:26;;;;;;;1.02;0.30;;;6.80;99.90;;;;;;5065389;28;20421;-85
2021/12/18 12:39:54;;;;;;;0.70;0.20;;;6.80;99.90;;;;;;5050810;28;20052;-86
2021/12/18 12:42:20;;;;;;;1.35;0.20;;;6.70;99.90;;;;;;5066203;28;20438;-85
2021/12/18 12:44:56;;;;;;;1.88;0.28;;;6.60;99.90;;;;;;5050145;28;20029;-85
2021/12/18 12:47:24;;;;;;;1.55;0.20;;;6.70;99.90;;;;;;5046555;28;20036;-85
2021/12/18 12:49:56;;;;;;;1.40;0.30;;;6.70;99.90;;;;;;5066952;28;20111;-85
2021/12/18 12:52:24;;;;;;;1.05;0.30;;;6.70;99.90;;;;;;5062634;28;20041;-85
2021/12/18 12:54:59;;;;;;;1.20;0.30;;;6.70;99.90;;;;;;5059980;28;20032;-83
2021/12/18 12:57:28;;;;;;;0.77;0.20;;;6.70;99.90;;;;;;5063208;28;20103;-85
2021/12/18 13:00:05;;;;;;;0.90;0.20;;;6.80;99.90;;;;;;5067893;28;20054;-85
2021/12/18 13:02:35;;;;;;;0.85;0.20;;;6.90;99.90;;;;;;5061033;28;20032;-85
2021/12/18 13:05:05;;;;;;;1.00;0.20;;;7.00;99.90;;;;;;5061563;28;20059;-85
2021/12/18 13:07:31;;;;;;;0.90;0.20;;;7.00;99.90;;;;;;5057686;28;20035;-85
2021/12/18 13:09:57;;;;;;;0.95;0.22;;;7.00;99.90;;;;;;5063620;28;20048;-85
2021/12/18 13:12:22;;;;;;;0.68;0.10;;;6.90;99.90;;;;;;5058499;28;20078;-85
2021/12/18 13:14:48;;;;;;;0.80;0.30;;;7.10;99.90;;;;;;5057027;28;20048;-86
2021/12/18 13:17:17;;;;;;;0.32;0.10;;;7.00;99.90;;;;;;5061402;28;20055;-86
2021/12/18 13:20:02;;;;;;;0.50;0.10;;;7.00;99.90;;;;;;5062121;28;20033;-85
2021/12/18 13:22:33;;;;;;;0.35;0.10;;;7.00;99.90;;;;;;5047364;28;20035;-86
2021/12/18 13:25:13;;;;;;;0.95;0.10;;;7.10;99.90;;;;;;5047932;28;20477;-85
2021/12/18 13:27:41;;;;;;;0.43;0.13;;;7.00;99.90;;;;;;5049158;28;20124;-86
2021/12/18 13:30:14;;;;;;;1.73;0.15;;;7.10;99.90;;;;;;5068232;28;20037;-86
2021/12/18 13:32:59;;;;;;;0.85;0.20;;;7.10;99.90;;;;;;5068619;28;20123;-86
2021/12/18 13:35:28;;;;;;;0.47;0.10;;;7.10;99.90;;;;;;5068648;28;20040;-86
2021/12/18 13:37:59;;;;;;;0.80;0.20;;;7.10;99.90;;;;;;5065170;28;20090;-86
2021/12/18 13:40:31;;;;;;;1.92;0.30;;;7.00;99.90;;;;;;5048382;28;20469;-86
2021/12/18 13:43:10;;;;;;;0.50;0.20;;;7.00;99.90;;;;;;5048702;28;20508;-86
2021/12/18 13:45:58;;;;;;;0.80;0.20;;;7.20;99.90;;;;;;5048205;28;20024;-86
2021/12/18 13:48:30;;;;;;;1.13;0.20;;;7.10;99.90;;;;;;5048571;28;20025;-85
2021/12/18 13:51:07;;;;;;;1.33;0.47;;;7.10;99.90;;;;;;5048355;28;20049;-86
2021/12/18 13:53:34;;;;;;;0.90;0.20;;;7.10;99.90;;;;;;5048330;28;20085;-86
2021/12/18 13:56:05;;;;;;;0.82;0.20;;;7.00;99.90;;;;;;5048039;28;20092;-85